createdAt,value
2022-10-02T00:00:50.322Z,11.30
2022-10-02T00:01:50.328Z,11.32
2022-10-02T00:02:50.295Z,11.32
2022-10-02T00:03:50.367Z,11.30
2022-10-02T00:04:50.323Z,11.26
2022-10-02T00:05:50.272Z,11.27
2022-10-02T00:06:50.232Z,11.27
2022-10-02T00:07:50.221Z,11.27
2022-10-02T00:08:50.220Z,11.29
2022-10-02T00:09:50.253Z,11.30
2022-10-02T00:10:50.198Z,11.29
2022-10-02T00:11:50.200Z,11.32
2022-10-02T00:12:50.172Z,11.32
2022-10-02T00:13:50.180Z,11.35
2022-10-02T00:14:50.219Z,11.33
2022-10-02T00:15:50.139Z,11.35
2022-10-02T00:16:50.155Z,11.40
2022-10-02T00:17:50.122Z,11.43
2022-10-02T00:18:50.118Z,11.45
2022-10-02T00:19:50.149Z,11.50
2022-10-02T00:20:50.100Z,11.50
2022-10-02T00:21:50.078Z,11.50
2022-10-02T00:22:50.073Z,11.50
2022-10-02T00:23:50.072Z,11.47
2022-10-02T00:24:50.043Z,11.44
2022-10-02T00:25:50.078Z,11.37
2022-10-02T00:26:50.016Z,11.27
2022-10-02T00:27:50.047Z,11.23
2022-10-02T00:28:49.990Z,11.22
2022-10-02T00:29:50.002Z,11.18
2022-10-02T00:30:50.037Z,11.23
2022-10-02T00:31:50.005Z,11.25
2022-10-02T00:32:49.960Z,11.22
2022-10-02T00:33:49.942Z,11.17
2022-10-02T00:34:49.934Z,11.14
2022-10-02T00:35:49.981Z,11.11
2022-10-02T00:36:49.911Z,11.12
2022-10-02T00:37:49.895Z,11.11
2022-10-02T00:38:49.874Z,11.07
2022-10-02T00:39:49.866Z,11.04
2022-10-02T00:40:49.893Z,11.04
2022-10-02T00:41:49.853Z,11.05
2022-10-02T00:42:49.846Z,11.02
2022-10-02T00:43:49.840Z,10.97
2022-10-02T00:44:49.823Z,10.96
2022-10-02T00:45:49.895Z,10.92
2022-10-02T00:46:49.799Z,10.86
2022-10-02T00:47:49.801Z,10.84
2022-10-02T00:48:49.801Z,10.81
2022-10-02T00:49:49.762Z,10.79
2022-10-02T00:50:49.788Z,10.74
2022-10-02T00:51:49.739Z,10.71
2022-10-02T00:52:49.748Z,10.63
2022-10-02T00:53:49.723Z,10.60
2022-10-02T00:54:49.720Z,10.60
2022-10-02T00:55:49.781Z,10.56
2022-10-02T00:56:49.678Z,10.48
2022-10-02T00:57:49.684Z,10.46
2022-10-02T00:58:49.647Z,10.42
2022-10-02T00:59:49.662Z,10.41
2022-10-02T01:00:49.705Z,10.37
2022-10-02T01:01:49.700Z,10.34
2022-10-02T01:02:49.617Z,10.33
2022-10-02T01:03:49.601Z,10.31
2022-10-02T01:04:49.600Z,10.26
2022-10-02T01:05:49.646Z,10.28
2022-10-02T01:06:49.585Z,10.30
2022-10-02T01:07:49.550Z,10.33
2022-10-02T01:08:49.536Z,10.30
2022-10-02T01:09:49.518Z,10.26
2022-10-02T01:10:49.569Z,10.26
2022-10-02T01:11:49.523Z,10.23
2022-10-02T01:12:49.500Z,10.33
2022-10-02T01:13:49.505Z,10.35
2022-10-02T01:14:49.474Z,10.31
2022-10-02T01:15:49.521Z,10.28
2022-10-02T01:16:49.509Z,10.20
2022-10-02T01:17:49.449Z,10.16
2022-10-02T01:18:49.443Z,10.15
2022-10-02T01:19:49.432Z,10.12
2022-10-02T01:20:49.453Z,10.09
2022-10-02T01:21:49.390Z,10.04
2022-10-02T01:22:49.381Z,10.02
2022-10-02T01:23:49.402Z,10.01
2022-10-02T01:24:49.411Z,9.99
2022-10-02T01:25:49.358Z,9.94
2022-10-02T01:26:49.338Z,9.94
2022-10-02T01:27:49.350Z,9.98
2022-10-02T01:28:49.322Z,9.97
2022-10-02T01:29:49.300Z,9.94
2022-10-02T01:30:49.329Z,9.94
2022-10-02T01:31:49.324Z,9.87
2022-10-02T01:32:49.278Z,9.83
2022-10-02T01:33:49.274Z,9.86
2022-10-02T01:34:49.253Z,9.82
2022-10-02T01:35:50.251Z,9.80
2022-10-02T01:36:49.201Z,9.79
2022-10-02T01:37:49.203Z,9.76
2022-10-02T01:38:49.173Z,9.72
2022-10-02T01:39:49.182Z,9.69
2022-10-02T01:40:49.206Z,9.74
2022-10-02T01:41:49.202Z,9.76
2022-10-02T01:42:49.161Z,9.73
2022-10-02T01:43:49.142Z,9.69
2022-10-02T01:44:49.130Z,9.68
2022-10-02T01:45:49.212Z,9.69
2022-10-02T01:46:49.105Z,9.76
2022-10-02T01:47:49.098Z,9.80
2022-10-02T01:48:49.097Z,9.79
2022-10-02T01:49:49.073Z,9.84
2022-10-02T01:50:49.097Z,9.86
2022-10-02T01:51:49.093Z,9.95
2022-10-02T01:52:49.056Z,9.95
2022-10-02T01:53:49.035Z,9.99
2022-10-02T01:54:49.011Z,9.95
2022-10-02T01:55:49.057Z,9.94
2022-10-02T01:56:48.991Z,9.92
2022-10-02T01:57:48.998Z,9.92
2022-10-02T01:58:48.973Z,9.91
2022-10-02T01:59:48.976Z,9.87
2022-10-02T02:00:49.020Z,9.87
2022-10-02T02:01:49.009Z,9.91
2022-10-02T02:02:48.944Z,9.89
2022-10-02T02:03:48.910Z,9.86
2022-10-02T02:04:48.920Z,9.84
2022-10-02T02:05:48.960Z,9.83
2022-10-02T02:06:48.868Z,9.86
2022-10-02T02:07:48.865Z,9.83
2022-10-02T02:08:48.860Z,9.83
2022-10-02T02:09:48.845Z,9.87
2022-10-02T02:10:48.889Z,9.86
2022-10-02T02:11:48.830Z,9.84
2022-10-02T02:12:48.812Z,9.83
2022-10-02T02:13:48.829Z,9.82
2022-10-02T02:14:48.788Z,9.83
2022-10-02T02:15:48.829Z,9.79
2022-10-02T02:16:48.838Z,9.77
2022-10-02T02:17:48.777Z,9.74
2022-10-02T02:18:48.797Z,9.80
2022-10-02T02:19:48.759Z,9.77
2022-10-02T02:20:48.787Z,9.74
2022-10-02T02:21:48.723Z,9.76
2022-10-02T02:22:48.709Z,9.74
2022-10-02T02:23:48.694Z,9.72
2022-10-02T02:24:48.715Z,9.68
2022-10-02T02:25:48.736Z,9.68
2022-10-02T02:26:48.694Z,9.68
2022-10-02T02:27:48.683Z,9.72
2022-10-02T02:28:48.666Z,9.72
2022-10-02T02:29:48.651Z,9.69
2022-10-02T02:30:48.680Z,9.73
2022-10-02T02:31:48.665Z,9.69
2022-10-02T02:32:48.604Z,9.73
2022-10-02T02:33:48.597Z,9.72
2022-10-02T02:34:48.635Z,9.79
2022-10-02T02:35:48.590Z,9.77
2022-10-02T02:36:48.555Z,9.79
2022-10-02T02:37:48.543Z,9.82
2022-10-02T02:38:48.516Z,9.82
2022-10-02T02:39:48.519Z,9.86
2022-10-02T02:40:48.549Z,9.87
2022-10-02T02:41:48.510Z,9.89
2022-10-02T02:42:48.503Z,9.87
2022-10-02T02:43:48.476Z,9.94
2022-10-02T02:44:48.483Z,9.95
2022-10-02T02:45:48.540Z,9.95
2022-10-02T02:46:48.461Z,9.98
2022-10-02T02:47:48.441Z,10.01
2022-10-02T02:48:48.415Z,9.98
2022-10-02T02:49:48.412Z,10.02
2022-10-02T02:50:48.453Z,10.09
2022-10-02T02:51:48.401Z,10.07
2022-10-02T02:52:48.375Z,10.02
2022-10-02T02:53:48.389Z,10.02
2022-10-02T02:54:48.399Z,10.04
2022-10-02T02:55:48.384Z,10.05
2022-10-02T02:56:48.323Z,10.05
2022-10-02T02:57:48.312Z,10.12
2022-10-02T02:58:48.313Z,10.16
2022-10-02T02:59:48.293Z,10.25
2022-10-02T03:00:48.376Z,10.28
2022-10-02T03:01:48.338Z,10.28
2022-10-02T03:02:48.259Z,10.30
2022-10-02T03:03:48.283Z,10.31
2022-10-02T03:04:48.250Z,10.34
2022-10-02T03:05:48.273Z,10.37
2022-10-02T03:06:48.222Z,10.37
2022-10-02T03:07:48.185Z,10.41
2022-10-02T03:08:48.180Z,10.49
2022-10-02T03:09:48.177Z,10.54
2022-10-02T03:10:48.227Z,10.51
2022-10-02T03:11:48.155Z,10.51
2022-10-02T03:12:48.148Z,10.46
2022-10-02T03:13:48.152Z,10.48
2022-10-02T03:14:48.134Z,10.48
2022-10-02T03:15:48.204Z,10.49
2022-10-02T03:16:48.108Z,10.51
2022-10-02T03:17:48.078Z,10.51
2022-10-02T03:18:48.081Z,10.53
2022-10-02T03:19:48.058Z,10.56
2022-10-02T03:20:48.092Z,10.61
2022-10-02T03:21:48.040Z,10.63
2022-10-02T03:22:48.043Z,10.63
2022-10-02T03:23:48.012Z,10.63
2022-10-02T03:24:48.007Z,10.63
2022-10-02T03:25:48.031Z,10.64
2022-10-02T03:26:47.988Z,10.68
2022-10-02T03:27:48.044Z,10.75
2022-10-02T03:28:56.652Z,10.76
2022-10-02T03:29:48.938Z,10.75
2022-10-02T03:30:47.994Z,10.74
2022-10-02T03:31:47.968Z,10.76
2022-10-02T03:32:47.930Z,10.74
2022-10-02T03:33:47.889Z,10.74
2022-10-02T03:34:47.900Z,10.74
2022-10-02T03:35:47.934Z,10.75
2022-10-02T03:36:47.886Z,10.74
2022-10-02T03:37:47.846Z,10.71
2022-10-02T03:39:00.762Z,10.63
2022-10-02T03:39:48.824Z,10.57
2022-10-02T03:40:47.869Z,10.56
2022-10-02T03:41:47.819Z,10.51
2022-10-02T03:42:47.798Z,10.41
2022-10-02T03:43:47.797Z,10.38
2022-10-02T03:44:47.776Z,10.40
2022-10-02T03:45:51.512Z,10.35
2022-10-02T03:46:47.814Z,10.38
2022-10-02T03:47:47.753Z,10.37
2022-10-02T03:48:47.773Z,10.34
2022-10-02T03:49:47.724Z,10.31
2022-10-02T03:50:47.757Z,10.30
2022-10-02T03:51:47.702Z,10.25
2022-10-02T03:52:47.802Z,10.26
2022-10-02T03:53:47.677Z,10.26
2022-10-02T03:54:47.665Z,10.25
2022-10-02T03:55:47.701Z,10.23
2022-10-02T03:56:47.649Z,10.20
2022-10-02T03:57:47.641Z,10.20
2022-10-02T03:58:47.621Z,10.17
2022-10-02T03:59:47.605Z,10.16
2022-10-02T04:00:47.645Z,10.13
2022-10-02T04:01:49.228Z,10.09
2022-10-02T04:02:47.601Z,10.07
2022-10-02T04:03:47.634Z,10.10
2022-10-02T04:04:47.551Z,10.04
2022-10-02T04:05:47.570Z,10.04
2022-10-02T04:06:47.515Z,10.05
2022-10-02T04:07:52.428Z,10.09
2022-10-02T04:08:48.495Z,10.07
2022-10-02T04:09:47.475Z,10.02
2022-10-02T04:10:47.537Z,9.95
2022-10-02T04:11:47.461Z,9.95
2022-10-02T04:12:47.462Z,9.97
2022-10-02T04:13:47.434Z,9.98
2022-10-02T04:14:47.446Z,9.97
2022-10-02T04:15:47.490Z,9.97
2022-10-02T04:16:47.422Z,10.01
2022-10-02T04:17:47.394Z,9.98
2022-10-02T04:18:47.388Z,9.95
2022-10-02T04:19:47.394Z,9.97
2022-10-02T04:20:47.416Z,9.98
2022-10-02T04:21:47.368Z,9.95
2022-10-02T04:22:47.334Z,9.92
2022-10-02T04:23:47.309Z,9.91
2022-10-02T04:24:47.328Z,9.84
2022-10-02T04:25:47.352Z,9.87
2022-10-02T04:26:47.311Z,9.86
2022-10-02T04:27:47.311Z,9.87
2022-10-02T04:28:47.280Z,9.87
2022-10-02T04:29:47.268Z,9.91
2022-10-02T04:30:47.295Z,9.94
2022-10-02T04:31:47.276Z,9.94
2022-10-02T04:32:47.248Z,9.94
2022-10-02T04:33:47.231Z,9.94
2022-10-02T04:34:47.200Z,9.94
2022-10-02T04:35:47.248Z,9.89
2022-10-02T04:36:47.181Z,9.91
2022-10-02T04:37:47.162Z,9.89
2022-10-02T04:38:47.154Z,9.91
2022-10-02T04:39:47.132Z,10.04
2022-10-02T04:40:47.191Z,10.13
2022-10-02T04:41:47.133Z,10.23
2022-10-02T04:42:47.123Z,10.22
2022-10-02T04:43:47.097Z,10.22
2022-10-02T04:44:47.100Z,10.23
2022-10-02T04:45:47.189Z,10.25
2022-10-02T04:46:47.081Z,10.30
2022-10-02T04:47:47.062Z,10.33
2022-10-02T04:48:47.040Z,10.37
2022-10-02T04:49:47.048Z,10.46
2022-10-02T04:50:47.070Z,10.53
2022-10-02T04:51:46.992Z,10.59
2022-10-02T04:52:47.006Z,10.63
2022-10-02T04:53:46.999Z,10.68
2022-10-02T04:54:46.983Z,10.69
2022-10-02T04:55:47.019Z,10.71
2022-10-02T04:56:46.960Z,10.74
2022-10-02T04:57:46.930Z,10.74
2022-10-02T04:58:46.965Z,10.74
2022-10-02T04:59:46.918Z,10.75
2022-10-02T05:00:46.992Z,10.74
2022-10-02T05:01:46.966Z,10.76
2022-10-02T05:02:46.896Z,10.78
2022-10-02T05:03:46.869Z,10.78
2022-10-02T05:04:46.860Z,10.76
2022-10-02T05:05:46.897Z,10.76
2022-10-02T05:06:46.842Z,10.78
2022-10-02T05:07:46.817Z,10.81
2022-10-02T05:08:46.799Z,10.78
2022-10-02T05:09:46.788Z,10.79
2022-10-02T05:10:46.840Z,10.79
2022-10-02T05:11:46.773Z,10.81
2022-10-02T05:12:46.785Z,10.78
2022-10-02T05:13:46.755Z,10.78
2022-10-02T05:14:46.777Z,10.76
2022-10-02T05:15:46.849Z,10.74
2022-10-02T05:16:46.739Z,10.76
2022-10-02T05:17:46.732Z,10.75
2022-10-02T05:18:46.738Z,10.75
2022-10-02T05:19:46.793Z,10.74
2022-10-02T05:20:46.744Z,10.74
2022-10-02T05:21:46.685Z,10.75
2022-10-02T05:22:46.662Z,10.75
2022-10-02T05:23:46.674Z,10.75
2022-10-02T05:24:46.645Z,10.78
2022-10-02T05:25:46.690Z,10.78
2022-10-02T05:26:46.615Z,10.78
2022-10-02T05:27:46.656Z,10.76
2022-10-02T05:28:46.602Z,10.76
2022-10-02T05:29:46.586Z,10.75
2022-10-02T05:30:46.616Z,10.76
2022-10-02T05:31:46.635Z,10.72
2022-10-02T05:32:46.569Z,10.71
2022-10-02T05:33:48.500Z,10.74
2022-10-02T05:34:46.525Z,10.72
2022-10-02T05:35:46.551Z,10.74
2022-10-02T05:36:46.506Z,10.74
2022-10-02T05:37:46.476Z,10.74
2022-10-02T05:38:46.464Z,10.75
2022-10-02T05:39:46.461Z,10.75
2022-10-02T05:40:46.519Z,10.75
2022-10-02T05:41:46.439Z,10.75
2022-10-02T05:42:46.469Z,10.74
2022-10-02T05:43:46.418Z,10.78
2022-10-02T05:44:46.434Z,10.79
2022-10-02T05:45:46.542Z,10.82
2022-10-02T05:46:46.433Z,10.86
2022-10-02T05:47:46.381Z,10.90
2022-10-02T05:48:46.370Z,10.96
2022-10-02T05:49:46.371Z,11.08
2022-10-02T05:50:46.412Z,11.15
2022-10-02T05:51:46.322Z,11.23
2022-10-02T05:52:46.344Z,11.30
2022-10-02T05:53:46.303Z,11.33
2022-10-02T05:54:46.314Z,11.37
2022-10-02T05:55:46.342Z,11.41
2022-10-02T05:56:46.281Z,11.45
2022-10-02T05:57:46.272Z,11.45
2022-10-02T05:58:46.253Z,11.43
2022-10-02T05:59:46.263Z,11.43
2022-10-02T06:00:46.351Z,11.40
2022-10-02T06:01:46.287Z,11.44
2022-10-02T06:02:46.211Z,11.41
2022-10-02T06:03:46.213Z,11.41
2022-10-02T06:04:46.237Z,11.41
2022-10-02T06:05:46.224Z,11.40
2022-10-02T06:06:46.187Z,11.37
2022-10-02T06:07:46.140Z,11.41
2022-10-02T06:08:46.127Z,11.43
2022-10-02T06:09:46.111Z,11.44
2022-10-02T06:10:46.190Z,11.47
2022-10-02T06:11:46.101Z,11.50
2022-10-02T06:12:46.108Z,11.52
2022-10-02T06:13:46.128Z,11.54
2022-10-02T06:14:49.913Z,11.59
2022-10-02T06:15:46.112Z,11.62
2022-10-02T06:16:46.093Z,11.68
2022-10-02T06:17:46.017Z,11.69
2022-10-02T06:18:46.024Z,11.80
2022-10-02T06:19:46.011Z,11.81
2022-10-02T06:20:46.064Z,11.81
2022-10-02T06:21:45.999Z,11.80
2022-10-02T06:22:45.979Z,11.75
2022-10-02T06:23:45.998Z,11.69
2022-10-02T06:24:45.964Z,11.62
2022-10-02T06:25:45.973Z,11.59
2022-10-02T06:26:45.946Z,11.52
2022-10-02T06:27:45.953Z,11.54
2022-10-02T06:28:45.932Z,11.51
2022-10-02T06:29:45.902Z,11.50
2022-10-02T06:30:45.946Z,11.50
2022-10-02T06:31:45.956Z,11.45
2022-10-02T06:32:45.859Z,11.48
2022-10-02T06:33:45.860Z,11.51
2022-10-02T06:34:48.221Z,11.52
2022-10-02T06:35:45.879Z,11.73
2022-10-02T06:36:45.820Z,11.70
2022-10-02T06:37:45.796Z,11.68
2022-10-02T06:38:45.801Z,11.70
2022-10-02T06:39:45.779Z,11.90
2022-10-02T06:40:45.787Z,12.00
2022-10-02T06:41:45.809Z,12.18
2022-10-02T06:42:45.769Z,12.39
2022-10-02T06:43:45.738Z,12.58
2022-10-02T06:44:45.744Z,12.75
2022-10-02T06:45:45.762Z,12.85
2022-10-02T06:46:49.409Z,13.09
2022-10-02T06:47:46.704Z,13.23
2022-10-02T06:48:45.689Z,13.47
2022-10-02T06:49:45.722Z,13.60
2022-10-02T06:50:45.671Z,13.75
2022-10-02T06:51:45.704Z,13.79
2022-10-02T06:52:45.627Z,13.93
2022-10-02T06:53:45.633Z,14.07
2022-10-02T06:54:45.625Z,14.10
2022-10-02T06:55:45.601Z,14.26
2022-10-02T06:56:45.639Z,14.33
2022-10-02T06:57:45.593Z,14.45
2022-10-02T06:58:45.583Z,14.54
2022-10-02T06:59:45.559Z,14.66
2022-10-02T07:00:45.677Z,14.77
2022-10-02T07:01:45.629Z,14.77
2022-10-02T07:02:45.535Z,14.70
2022-10-02T07:03:45.527Z,14.85
2022-10-02T07:04:45.517Z,14.94
2022-10-02T07:05:45.492Z,15.03
2022-10-02T07:06:45.554Z,15.17
2022-10-02T07:07:45.463Z,15.10
2022-10-02T07:08:45.457Z,15.19
2022-10-02T07:09:45.427Z,15.31
2022-10-02T07:10:45.425Z,15.24
2022-10-02T07:11:45.482Z,15.29
2022-10-02T07:12:45.431Z,15.36
2022-10-02T07:13:45.403Z,15.43
2022-10-02T07:14:45.388Z,15.46
2022-10-02T07:15:45.401Z,15.64
2022-10-02T07:16:45.474Z,15.65
2022-10-02T07:17:45.379Z,15.73
2022-10-02T07:18:45.352Z,15.94
2022-10-02T07:19:45.354Z,15.84
2022-10-02T07:20:45.306Z,15.77
2022-10-02T07:21:45.380Z,15.86
2022-10-02T07:22:45.958Z,15.94
2022-10-02T07:23:45.356Z,16.15
2022-10-02T07:24:45.289Z,16.24
2022-10-02T07:25:45.280Z,16.17
2022-10-02T07:26:45.294Z,16.23
2022-10-02T07:27:45.321Z,16.29
2022-10-02T07:28:45.220Z,16.39
2022-10-02T07:29:45.225Z,16.43
2022-10-02T07:30:45.203Z,16.35
2022-10-02T07:31:45.329Z,16.54
2022-10-02T07:32:45.172Z,16.65
2022-10-02T07:33:45.186Z,16.90
2022-10-02T07:34:45.179Z,16.81
2022-10-02T07:35:45.177Z,16.83
2022-10-02T07:36:45.179Z,17.11
2022-10-02T07:37:45.130Z,16.99
2022-10-02T07:38:45.105Z,17.08
2022-10-02T07:39:45.090Z,17.16
2022-10-02T07:40:45.088Z,17.46
2022-10-02T07:41:45.164Z,17.60
2022-10-02T07:42:45.101Z,17.80
2022-10-02T07:43:45.075Z,17.82
2022-10-02T07:44:45.054Z,17.70
2022-10-02T07:45:45.121Z,17.80
2022-10-02T07:46:45.102Z,17.71
2022-10-02T07:47:45.032Z,17.54
2022-10-02T07:48:45.001Z,17.54
2022-10-02T07:49:45.002Z,17.44
2022-10-02T07:50:44.999Z,17.57
2022-10-02T07:51:45.012Z,17.89
2022-10-02T07:52:44.973Z,18.05
2022-10-02T07:53:44.946Z,18.13
2022-10-02T07:54:44.941Z,18.33
2022-10-02T07:55:44.932Z,18.33
2022-10-02T07:56:44.932Z,18.34
2022-10-02T07:57:44.914Z,18.62
2022-10-02T07:58:44.894Z,18.63
2022-10-02T07:59:44.889Z,18.78
2022-10-02T08:00:44.875Z,18.73
2022-10-02T08:01:44.949Z,18.75
2022-10-02T08:02:44.853Z,18.50
2022-10-02T08:03:44.869Z,18.60
2022-10-02T08:04:44.820Z,18.92
2022-10-02T08:05:44.804Z,19.07
2022-10-02T08:06:44.855Z,18.92
2022-10-02T08:07:44.806Z,18.75
2022-10-02T08:08:44.777Z,18.75
2022-10-02T08:09:44.768Z,18.77
2022-10-02T08:10:44.742Z,18.50
2022-10-02T08:11:49.218Z,18.04
2022-10-02T08:12:44.742Z,17.59
2022-10-02T08:13:44.725Z,16.99
2022-10-02T08:14:44.719Z,16.86
2022-10-02T08:15:44.710Z,17.24
2022-10-02T08:16:44.798Z,17.79
2022-10-02T08:17:44.694Z,18.40
2022-10-02T08:18:44.674Z,18.31
2022-10-02T08:19:44.697Z,18.52
2022-10-02T08:20:44.674Z,18.71
2022-10-02T08:21:44.675Z,18.90
2022-10-02T08:22:44.627Z,19.36
2022-10-02T08:23:44.598Z,19.08
2022-10-02T08:24:44.602Z,18.90
2022-10-02T08:25:44.597Z,19.11
2022-10-02T08:26:44.620Z,18.58
2022-10-02T08:27:44.582Z,18.18
2022-10-02T08:28:44.541Z,17.72
2022-10-02T08:29:44.554Z,17.38
2022-10-02T08:30:44.529Z,17.30
2022-10-02T08:31:44.583Z,17.31
2022-10-02T08:32:44.498Z,17.15
2022-10-02T08:33:44.504Z,16.99
2022-10-02T08:34:44.484Z,16.87
2022-10-02T08:35:44.504Z,16.89
2022-10-02T08:36:44.517Z,16.84
2022-10-02T08:37:44.442Z,16.81
2022-10-02T08:38:44.422Z,16.76
2022-10-02T08:39:44.419Z,16.81
2022-10-02T08:40:44.400Z,16.96
2022-10-02T08:41:44.461Z,17.04
2022-10-02T08:42:44.411Z,16.99
2022-10-02T08:43:44.394Z,16.97
2022-10-02T08:44:44.367Z,16.94
2022-10-02T08:45:44.395Z,16.97
2022-10-02T08:46:44.400Z,16.97
2022-10-02T08:47:44.351Z,17.05
2022-10-02T08:48:44.321Z,17.09
2022-10-02T08:49:44.341Z,17.24
2022-10-02T08:50:44.320Z,17.36
2022-10-02T08:51:44.344Z,18.03
2022-10-02T08:52:44.283Z,18.77
2022-10-02T08:53:44.264Z,19.34
2022-10-02T08:54:44.269Z,19.56
2022-10-02T08:55:44.246Z,19.52
2022-10-02T08:56:44.287Z,19.27
2022-10-02T08:57:44.262Z,19.04
2022-10-02T08:58:44.216Z,18.66
2022-10-02T08:59:44.228Z,18.43
2022-10-02T09:00:44.233Z,18.11
2022-10-02T09:01:44.270Z,18.01
2022-10-02T09:02:44.158Z,17.90
2022-10-02T09:03:44.179Z,17.89
2022-10-02T09:04:44.132Z,18.34
2022-10-02T09:05:44.145Z,19.09
2022-10-02T09:06:44.177Z,18.93
2022-10-02T09:07:44.122Z,18.93
2022-10-02T09:08:44.079Z,18.84
2022-10-02T09:09:44.077Z,18.43
2022-10-02T09:10:44.080Z,18.16
2022-10-02T09:11:44.120Z,17.89
2022-10-02T09:12:44.031Z,17.65
2022-10-02T09:13:44.049Z,17.54
2022-10-02T09:14:44.054Z,17.56
2022-10-02T09:15:44.023Z,17.79
2022-10-02T09:16:44.109Z,17.95
2022-10-02T09:17:44.019Z,18.15
2022-10-02T09:18:43.980Z,18.10
2022-10-02T09:19:43.986Z,17.83
2022-10-02T09:20:43.961Z,17.74
2022-10-02T09:21:43.962Z,17.48
2022-10-02T09:22:43.993Z,17.33
2022-10-02T09:23:43.921Z,17.23
2022-10-02T09:24:43.927Z,17.57
2022-10-02T09:25:43.904Z,17.49
2022-10-02T09:26:43.894Z,17.44
2022-10-02T09:27:43.944Z,17.52
2022-10-02T09:28:43.892Z,17.65
2022-10-02T09:29:43.871Z,17.56
2022-10-02T09:30:43.859Z,17.33
2022-10-02T09:31:43.871Z,17.15
2022-10-02T09:32:43.877Z,17.01
2022-10-02T09:33:43.829Z,17.01
2022-10-02T09:34:43.800Z,17.05
2022-10-02T09:35:43.782Z,17.04
2022-10-02T09:36:43.778Z,16.89
2022-10-02T09:37:43.817Z,16.87
2022-10-02T09:38:43.743Z,16.96
2022-10-02T09:39:43.734Z,17.06
2022-10-02T09:40:43.728Z,17.29
2022-10-02T09:41:43.733Z,17.27
2022-10-02T09:42:43.793Z,17.30
2022-10-02T09:43:43.688Z,17.39
2022-10-02T09:44:43.693Z,17.34
2022-10-02T09:45:43.713Z,17.36
2022-10-02T09:46:43.668Z,17.54
2022-10-02T09:47:43.685Z,17.95
2022-10-02T09:48:43.649Z,18.71
2022-10-02T09:49:43.647Z,19.18
2022-10-02T09:50:43.614Z,19.24
2022-10-02T09:51:43.604Z,19.14
2022-10-02T09:52:43.641Z,18.92
2022-10-02T09:53:43.579Z,18.80
2022-10-02T09:54:43.583Z,18.62
2022-10-02T09:55:43.563Z,18.55
2022-10-02T09:56:43.561Z,18.56
2022-10-02T09:57:43.606Z,18.70
2022-10-02T09:58:43.543Z,18.58
2022-10-02T09:59:43.525Z,18.47
2022-10-02T10:00:43.540Z,18.52
2022-10-02T10:01:43.503Z,18.45
2022-10-02T10:02:43.637Z,18.41
2022-10-02T10:03:43.496Z,18.49
2022-10-02T10:05:04.431Z,18.35
2022-10-02T10:05:44.462Z,18.19
2022-10-02T10:06:43.434Z,18.07
2022-10-02T10:07:43.473Z,17.90
2022-10-02T10:08:43.401Z,17.71
2022-10-02T10:09:43.397Z,17.41
2022-10-02T10:10:43.376Z,17.41
2022-10-02T10:11:43.399Z,17.34
2022-10-02T10:12:43.418Z,17.29
2022-10-02T10:13:43.373Z,17.12
2022-10-02T10:14:43.365Z,16.99
2022-10-02T10:15:43.354Z,16.99
2022-10-02T10:16:43.387Z,17.19
2022-10-02T10:17:43.368Z,17.33
2022-10-02T10:18:43.297Z,17.48
2022-10-02T10:19:43.307Z,17.45
2022-10-02T10:20:43.289Z,17.57
2022-10-02T10:21:43.289Z,17.56
2022-10-02T10:22:43.300Z,17.52
2022-10-02T10:23:43.248Z,17.67
2022-10-02T10:24:43.247Z,17.72
2022-10-02T10:25:43.242Z,17.63
2022-10-02T10:26:43.214Z,17.48
2022-10-02T10:27:43.263Z,17.31
2022-10-02T10:28:43.240Z,18.00
2022-10-02T10:29:43.192Z,17.72
2022-10-02T10:30:43.172Z,17.42
2022-10-02T10:31:43.261Z,17.42
2022-10-02T10:32:43.194Z,17.41
2022-10-02T10:33:43.157Z,17.31
2022-10-02T10:34:43.122Z,17.34
2022-10-02T10:35:43.135Z,17.80
2022-10-02T10:36:46.627Z,18.65
2022-10-02T10:37:43.143Z,19.49
2022-10-02T10:38:43.062Z,20.31
2022-10-02T10:39:43.067Z,21.77
2022-10-02T10:40:43.037Z,22.23
2022-10-02T10:41:43.034Z,22.53
2022-10-02T10:43:05.954Z,22.53
2022-10-02T10:43:44.010Z,22.98
2022-10-02T10:44:43.012Z,21.88
2022-10-02T10:45:43.011Z,21.03
2022-10-02T10:46:42.983Z,20.55
2022-10-02T10:47:43.031Z,20.03
2022-10-02T10:48:45.912Z,19.70
2022-10-02T10:49:43.963Z,20.43
2022-10-02T10:50:42.941Z,20.36
2022-10-02T10:51:42.923Z,20.22
2022-10-02T10:52:42.979Z,20.21
2022-10-02T10:53:42.916Z,20.21
2022-10-02T10:54:42.938Z,20.02
2022-10-02T10:55:42.891Z,19.85
2022-10-02T10:56:42.888Z,19.85
2022-10-02T10:57:42.913Z,19.64
2022-10-02T10:58:42.864Z,19.33
2022-10-02T10:59:42.860Z,19.00
2022-10-02T11:00:42.901Z,18.73
2022-10-02T11:01:42.872Z,18.86
2022-10-02T11:02:42.940Z,19.26
2022-10-02T11:03:42.816Z,19.09
2022-10-02T11:04:42.781Z,18.78
2022-10-02T11:05:42.782Z,18.63
2022-10-02T11:06:45.971Z,18.68
2022-10-02T11:07:42.799Z,18.53
2022-10-02T11:08:42.724Z,18.56
2022-10-02T11:09:42.716Z,18.73
2022-10-02T11:10:42.705Z,18.56
2022-10-02T11:11:42.703Z,18.56
2022-10-02T11:12:42.742Z,18.90
2022-10-02T11:13:42.714Z,19.31
2022-10-02T11:14:42.697Z,19.24
2022-10-02T11:15:42.661Z,19.99
2022-10-02T11:16:42.734Z,19.63
2022-10-02T11:17:42.676Z,19.48
2022-10-02T11:18:42.651Z,20.62
2022-10-02T11:19:42.620Z,21.25
2022-10-02T11:20:42.606Z,21.83
2022-10-02T11:21:42.593Z,22.45
2022-10-02T11:22:42.645Z,22.88
2022-10-02T11:23:42.585Z,23.18
2022-10-02T11:24:42.567Z,23.09
2022-10-02T11:25:42.581Z,22.35
2022-10-02T11:26:42.551Z,21.75
2022-10-02T11:27:42.578Z,22.20
2022-10-02T11:28:42.526Z,22.93
2022-10-02T11:29:42.509Z,22.47
2022-10-02T11:30:42.502Z,22.51
2022-10-02T11:31:42.546Z,22.18
2022-10-02T11:32:42.516Z,22.13
2022-10-02T11:33:42.465Z,21.88
2022-10-02T11:34:42.479Z,21.62
2022-10-02T11:35:42.445Z,22.00
2022-10-02T11:36:42.460Z,22.75
2022-10-02T11:37:42.460Z,23.51
2022-10-02T11:38:42.391Z,24.29
2022-10-02T11:39:42.388Z,25.04
2022-10-02T11:40:42.376Z,24.98
2022-10-02T11:41:42.397Z,23.59
2022-10-02T11:42:42.437Z,22.47
2022-10-02T11:43:44.173Z,21.52
2022-10-02T11:44:42.342Z,20.80
2022-10-02T11:45:42.370Z,20.43
2022-10-02T11:46:42.326Z,19.86
2022-10-02T11:47:42.357Z,19.49
2022-10-02T11:48:42.296Z,19.24
2022-10-02T11:49:42.293Z,18.98
2022-10-02T11:50:42.276Z,18.58
2022-10-02T11:51:42.264Z,18.33
2022-10-02T11:52:47.346Z,18.15
2022-10-02T11:53:43.271Z,17.87
2022-10-02T11:54:42.224Z,17.48
2022-10-02T11:55:42.223Z,17.04
2022-10-02T11:56:42.202Z,16.61
2022-10-02T11:57:42.238Z,16.21
2022-10-02T11:58:42.172Z,15.79
2022-10-02T11:59:42.217Z,15.51
2022-10-02T12:00:42.176Z,15.29
2022-10-02T12:01:42.141Z,15.06
2022-10-02T12:02:42.235Z,14.99
2022-10-02T12:03:42.126Z,14.97
2022-10-02T12:04:42.121Z,14.97
2022-10-02T12:05:42.106Z,15.07
2022-10-02T12:06:42.125Z,15.06
2022-10-02T12:07:42.156Z,15.11
2022-10-02T12:08:42.057Z,15.09
2022-10-02T12:09:42.077Z,15.07
2022-10-02T12:10:42.051Z,15.09
2022-10-02T12:11:42.058Z,16.00
2022-10-02T12:12:42.094Z,16.56
2022-10-02T12:13:42.029Z,17.06
2022-10-02T12:14:42.006Z,17.95
2022-10-02T12:15:42.025Z,17.57
2022-10-02T12:16:42.065Z,17.31
2022-10-02T12:17:42.009Z,18.16
2022-10-02T12:18:41.967Z,18.88
2022-10-02T12:19:41.954Z,19.48
2022-10-02T12:20:41.941Z,20.07
2022-10-02T12:21:41.928Z,20.60
2022-10-02T12:22:41.977Z,20.75
2022-10-02T12:23:41.915Z,20.80
2022-10-02T12:24:41.900Z,21.14
2022-10-02T12:25:41.867Z,20.95
2022-10-02T12:26:41.865Z,21.11
2022-10-02T12:27:41.901Z,21.17
2022-10-02T12:28:41.846Z,21.00
2022-10-02T12:29:41.865Z,21.24
2022-10-02T12:30:41.826Z,21.70
2022-10-02T12:31:41.963Z,21.39
2022-10-02T12:32:41.867Z,21.06
2022-10-02T12:33:41.780Z,21.42
2022-10-02T12:34:41.788Z,20.90
2022-10-02T12:35:41.765Z,20.92
2022-10-02T12:36:41.771Z,21.00
2022-10-02T12:37:41.788Z,20.22
2022-10-02T12:38:41.716Z,19.58
2022-10-02T12:39:41.767Z,19.26
2022-10-02T12:40:41.701Z,18.88
2022-10-02T12:41:41.708Z,18.68
2022-10-02T12:42:41.749Z,18.81
2022-10-02T12:43:41.688Z,18.60
2022-10-02T12:44:41.673Z,18.37
2022-10-02T12:45:41.715Z,18.04
2022-10-02T12:46:41.641Z,17.86
2022-10-02T12:47:41.682Z,17.52
2022-10-02T12:48:41.626Z,17.30
2022-10-02T12:49:41.645Z,17.19
2022-10-02T12:50:41.608Z,16.96
2022-10-02T12:51:41.589Z,16.86
2022-10-02T12:52:41.638Z,16.72
2022-10-02T12:53:41.573Z,16.56
2022-10-02T12:54:41.569Z,16.51
2022-10-02T12:55:41.547Z,16.39
2022-10-02T12:56:41.537Z,16.20